createdAt,value
2018-09-13T00:00:10.101Z,1.90
2018-09-13T00:00:44.836Z,1.93
2018-09-13T00:01:18.692Z,2.10
2018-09-13T00:01:52.546Z,1.60
2018-09-13T00:02:26.363Z,1.70
2018-09-13T00:03:00.583Z,1.70
2018-09-13T00:03:34.463Z,1.70
2018-09-13T00:04:08.339Z,2.13
2018-09-13T00:04:42.202Z,2.53
2018-09-13T00:05:16.078Z,1.97
2018-09-13T00:05:50.218Z,1.85
2018-09-13T00:06:24.259Z,2.33
2018-09-13T00:06:58.087Z,2.67
2018-09-13T00:07:31.991Z,2.23
2018-09-13T00:08:05.861Z,2.33
2018-09-13T00:08:39.778Z,1.77
2018-09-13T00:09:13.653Z,1.87
2018-09-13T00:09:47.489Z,1.80
2018-09-13T00:10:21.353Z,1.80
2018-09-13T00:10:55.208Z,2.23
2018-09-13T00:11:29.415Z,1.93
2018-09-13T00:12:03.265Z,1.93
2018-09-13T00:12:37.389Z,1.77
2018-09-13T00:13:11.264Z,2.20
2018-09-13T00:13:45.340Z,1.97
2018-09-13T00:14:19.211Z,1.80
2018-09-13T00:14:53.048Z,1.67
2018-09-13T00:15:26.875Z,1.97
2018-09-13T00:16:00.753Z,2.00
2018-09-13T00:16:34.734Z,3.00
2018-09-13T00:17:08.574Z,1.83
2018-09-13T00:17:42.432Z,1.87
2018-09-13T00:18:16.289Z,1.80
2018-09-13T00:18:50.164Z,2.30
2018-09-13T00:19:24.030Z,1.90
2018-09-13T00:19:57.855Z,2.60
2018-09-13T00:20:32.008Z,2.03
2018-09-13T00:21:06.333Z,2.37
2018-09-13T00:21:40.490Z,1.80
2018-09-13T00:22:14.371Z,2.07
2018-09-13T00:22:48.196Z,2.00
2018-09-13T00:23:22.079Z,2.13
2018-09-13T00:23:55.931Z,1.90
2018-09-13T00:24:29.835Z,1.83
2018-09-13T00:25:03.780Z,1.87
2018-09-13T00:25:37.585Z,1.67
2018-09-13T00:26:11.430Z,1.50
2018-09-13T00:26:45.248Z,1.83
2018-09-13T00:27:19.434Z,2.70
2018-09-13T00:27:53.350Z,1.40
2018-09-13T00:28:27.172Z,2.13
2018-09-13T00:29:01.060Z,1.80
2018-09-13T00:29:35.305Z,1.80
2018-09-13T00:30:09.191Z,1.70
2018-09-13T00:30:43.399Z,1.67
2018-09-13T00:31:17.283Z,1.60
2018-09-13T00:31:51.268Z,1.60
2018-09-13T00:32:25.139Z,1.87
2018-09-13T00:32:59.000Z,2.00
2018-09-13T00:33:32.945Z,1.90
2018-09-13T00:34:07.148Z,2.13
2018-09-13T00:34:41.163Z,2.13
2018-09-13T00:35:15.038Z,1.73
2018-09-13T00:35:48.879Z,1.60
2018-09-13T00:36:22.750Z,1.67
2018-09-13T00:36:56.570Z,1.63
2018-09-13T00:37:30.412Z,2.20
2018-09-13T00:38:04.580Z,1.67
2018-09-13T00:38:38.441Z,1.73
2018-09-13T00:39:12.316Z,1.97
2018-09-13T00:39:46.612Z,1.60
2018-09-13T00:40:20.462Z,1.77
2018-09-13T00:40:54.651Z,1.90
2018-09-13T00:41:28.517Z,1.87
2018-09-13T00:42:02.333Z,1.90
2018-09-13T00:42:36.377Z,2.07
2018-09-13T00:43:10.559Z,2.37
2018-09-13T00:43:44.685Z,1.85
2018-09-13T00:44:18.547Z,1.63
2018-09-13T00:44:52.419Z,1.87
2018-09-13T00:45:26.609Z,1.93
2018-09-13T00:46:00.476Z,1.90
2018-09-13T00:46:34.669Z,1.97
2018-09-13T00:47:11.743Z,1.30
2018-09-13T00:47:45.614Z,1.70
2018-09-13T00:48:19.474Z,1.90
2018-09-13T00:48:53.343Z,1.93
2018-09-13T00:49:27.216Z,2.37
2018-09-13T00:50:01.101Z,1.80
2018-09-13T00:50:34.955Z,2.27
2018-09-13T00:51:09.437Z,2.90
2018-09-13T00:51:43.307Z,1.80
2018-09-13T00:52:17.169Z,1.70
2018-09-13T00:52:51.030Z,1.63
2018-09-13T00:53:27.191Z,1.90
2018-09-13T00:54:01.034Z,2.00
2018-09-13T00:54:34.913Z,2.30
2018-09-13T00:55:08.927Z,1.90
2018-09-13T00:55:42.783Z,1.57
2018-09-13T00:56:16.627Z,1.60
2018-09-13T00:56:50.513Z,1.70
2018-09-13T00:57:24.413Z,2.03
2018-09-13T00:57:58.434Z,2.00
2018-09-13T00:58:32.350Z,1.40
2018-09-13T00:59:06.434Z,1.47
2018-09-13T00:59:40.775Z,1.47
2018-09-13T01:00:15.000Z,1.90
2018-09-13T01:00:48.897Z,1.97
2018-09-13T01:01:23.185Z,1.42
2018-09-13T01:01:57.672Z,1.92
2018-09-13T01:02:31.551Z,2.07
2018-09-13T01:03:05.616Z,1.50
2018-09-13T01:03:39.754Z,1.65
2018-09-13T01:04:13.607Z,1.60
2018-09-13T01:04:47.516Z,1.70
2018-09-13T01:05:21.372Z,1.50
2018-09-13T01:05:55.239Z,1.57
2018-09-13T01:06:29.418Z,1.80
2018-09-13T01:07:03.282Z,1.83
2018-09-13T01:07:37.152Z,1.93
2018-09-13T01:08:10.980Z,1.50
2018-09-13T01:08:44.818Z,1.57
2018-09-13T01:09:18.692Z,1.83
2018-09-13T01:09:53.661Z,1.90
2018-09-13T01:10:27.514Z,1.73
2018-09-13T01:11:01.721Z,2.10
2018-09-13T01:11:35.578Z,1.43
2018-09-13T01:12:09.775Z,1.50
2018-09-13T01:12:43.629Z,1.80
2018-09-13T01:13:17.814Z,2.20
2018-09-13T01:13:51.690Z,1.57
2018-09-13T01:14:25.590Z,1.43
2018-09-13T01:14:59.459Z,1.90
2018-09-13T01:15:33.309Z,1.87
2018-09-13T01:16:07.162Z,1.70
2018-09-13T01:16:40.971Z,1.93
2018-09-13T01:17:14.876Z,2.10
2018-09-13T01:17:48.778Z,1.97
2018-09-13T01:18:23.191Z,1.90
2018-09-13T01:18:57.396Z,1.43
2018-09-13T01:19:31.223Z,1.50
2018-09-13T01:20:05.395Z,1.30
2018-09-13T01:20:39.248Z,1.53
2018-09-13T01:21:13.075Z,1.60
2018-09-13T01:21:46.943Z,1.47
2018-09-13T01:22:20.758Z,1.90
2018-09-13T01:22:54.613Z,1.70
2018-09-13T01:23:28.885Z,2.00
2018-09-13T01:24:02.714Z,1.70
2018-09-13T01:24:36.542Z,1.50
2018-09-13T01:25:11.044Z,1.50
2018-09-13T01:25:45.252Z,1.53
2018-09-13T01:26:19.137Z,1.40
2018-09-13T01:26:52.965Z,1.87
2018-09-13T01:27:27.783Z,2.27
2018-09-13T01:28:01.646Z,2.03
2018-09-13T01:28:35.812Z,1.43
2018-09-13T01:29:09.635Z,1.40
2018-09-13T01:29:43.568Z,1.90
2018-09-13T01:30:17.399Z,1.80
2018-09-13T01:30:52.177Z,1.67
2018-09-13T01:31:26.943Z,1.67
2018-09-13T01:32:00.798Z,1.70
2018-09-13T01:32:34.642Z,1.63
2018-09-13T01:33:08.488Z,2.23
2018-09-13T01:33:42.338Z,1.80
2018-09-13T01:34:16.156Z,2.10
2018-09-13T01:34:51.103Z,1.47
2018-09-13T01:35:25.549Z,2.25
2018-09-13T01:35:59.396Z,2.10
2018-09-13T01:36:33.236Z,1.60
2018-09-13T01:37:07.529Z,1.90
2018-09-13T01:37:41.364Z,2.27
2018-09-13T01:38:15.184Z,2.07
2018-09-13T01:38:49.400Z,1.90
2018-09-13T01:39:23.266Z,1.53
2018-09-13T01:39:57.106Z,1.97
2018-09-13T01:40:30.968Z,1.93
2018-09-13T01:41:05.144Z,1.70
2018-09-13T01:41:39.368Z,1.97
2018-09-13T01:42:13.252Z,2.07
2018-09-13T01:42:47.138Z,1.87
2018-09-13T01:43:20.991Z,1.57
2018-09-13T01:43:54.876Z,1.90
2018-09-13T01:44:28.728Z,1.80
2018-09-13T01:45:02.588Z,1.63
2018-09-13T01:45:36.477Z,2.10
2018-09-13T01:46:10.348Z,1.60
2018-09-13T01:46:44.162Z,2.17
2018-09-13T01:47:17.989Z,1.50
2018-09-13T01:47:52.155Z,1.80
2018-09-13T01:48:26.002Z,1.60
2018-09-13T01:48:59.866Z,2.00
2018-09-13T01:49:34.060Z,2.27
2018-09-13T01:50:07.910Z,1.60
2018-09-13T01:50:41.756Z,1.60
2018-09-13T01:51:15.596Z,2.03
2018-09-13T01:51:49.416Z,1.90
2018-09-13T01:52:23.268Z,1.60
2018-09-13T01:52:57.736Z,2.10
2018-09-13T01:53:31.566Z,2.10
2018-09-13T01:54:05.988Z,2.30
2018-09-13T01:54:39.818Z,1.90
2018-09-13T01:55:13.682Z,1.87
2018-09-13T01:55:47.538Z,1.60
2018-09-13T01:56:21.385Z,1.93
2018-09-13T01:56:55.274Z,1.90
2018-09-13T01:57:29.101Z,2.53
2018-09-13T01:58:02.964Z,2.00
2018-09-13T01:58:36.781Z,1.47
2018-09-13T01:59:10.592Z,1.93
2018-09-13T01:59:44.446Z,1.77
2018-09-13T02:00:18.273Z,1.73
2018-09-13T02:00:52.810Z,1.40
2018-09-13T02:01:26.629Z,1.57
2018-09-13T02:02:00.806Z,1.40
2018-09-13T02:02:34.636Z,1.73
2018-09-13T02:03:48.563Z,1.60
2018-09-13T02:04:23.092Z,2.07
2018-09-13T02:04:56.977Z,2.30
2018-09-13T02:05:30.986Z,2.10
2018-09-13T02:06:04.840Z,2.50
2018-09-13T02:06:38.692Z,1.50
2018-09-13T02:07:12.546Z,1.60
2018-09-13T02:07:46.877Z,2.50
2018-09-13T02:08:20.704Z,1.57
2018-09-13T02:08:54.544Z,2.23
2018-09-13T02:09:28.976Z,1.65
2018-09-13T02:10:03.102Z,2.10
2018-09-13T02:10:36.942Z,2.10
2018-09-13T02:11:10.800Z,1.83
2018-09-13T02:11:44.630Z,1.80
2018-09-13T02:12:18.448Z,2.13
2018-09-13T02:12:52.280Z,1.60
2018-09-13T02:13:26.480Z,1.83
2018-09-13T02:14:00.576Z,1.87
2018-09-13T02:14:34.444Z,1.70
2018-09-13T02:15:08.565Z,1.70
2018-09-13T02:15:42.700Z,1.90
2018-09-13T02:16:16.534Z,2.43
2018-09-13T02:16:50.786Z,1.83
2018-09-13T02:17:24.656Z,2.23
2018-09-13T02:17:58.480Z,2.00
2018-09-13T02:18:32.354Z,1.53
2018-09-13T02:19:06.858Z,1.87
2018-09-13T02:19:40.994Z,1.90
2018-09-13T02:20:15.194Z,1.83
2018-09-13T02:20:49.106Z,1.97
2018-09-13T02:21:22.962Z,2.00
2018-09-13T02:21:56.832Z,2.00
2018-09-13T02:22:30.668Z,2.00
2018-09-13T02:23:04.822Z,1.73
2018-09-13T02:23:38.834Z,2.10
2018-09-13T02:24:13.066Z,1.97
2018-09-13T02:24:47.004Z,2.03
2018-09-13T02:25:21.148Z,2.65
2018-09-13T02:25:55.037Z,1.70
2018-09-13T02:26:29.160Z,1.90
2018-09-13T02:27:03.288Z,2.80
2018-09-13T02:27:37.460Z,2.25
2018-09-13T02:28:11.514Z,2.17
2018-09-13T02:28:45.736Z,1.80
2018-09-13T02:29:19.594Z,1.77
2018-09-13T02:29:53.755Z,1.62
2018-09-13T02:30:27.928Z,2.20
2018-09-13T02:31:01.818Z,1.80
2018-09-13T02:31:35.684Z,1.57
2018-09-13T02:32:09.529Z,1.70
2018-09-13T02:32:43.370Z,1.77
2018-09-13T02:33:17.248Z,1.67
2018-09-13T02:33:51.112Z,2.10
2018-09-13T02:34:25.258Z,2.40
2018-09-13T02:34:59.356Z,2.23
2018-09-13T02:35:33.570Z,1.63
2018-09-13T02:36:08.115Z,2.30
2018-09-13T02:36:41.950Z,2.20
2018-09-13T02:37:15.808Z,2.10
2018-09-13T02:37:49.654Z,1.70
2018-09-13T02:38:23.500Z,1.80
2018-09-13T02:38:57.326Z,1.90
2018-09-13T02:39:31.438Z,2.20
2018-09-13T02:40:05.584Z,1.70
2018-09-13T02:40:39.778Z,1.77
2018-09-13T02:41:14.053Z,1.90
2018-09-13T02:41:48.202Z,1.97
2018-09-13T02:42:22.397Z,2.23
2018-09-13T02:42:56.257Z,2.03
2018-09-13T02:43:30.131Z,2.00
2018-09-13T02:44:04.152Z,2.53
2018-09-13T02:44:38.030Z,2.53
2018-09-13T02:45:12.156Z,2.25
2018-09-13T02:45:46.344Z,2.00
2018-09-13T02:46:20.282Z,2.00
2018-09-13T02:46:54.170Z,1.50
2018-09-13T02:47:28.310Z,1.82
2018-09-13T02:48:02.165Z,2.03
2018-09-13T02:48:36.332Z,1.70
2018-09-13T02:49:10.877Z,2.05
2018-09-13T02:49:45.192Z,1.65
2018-09-13T02:50:19.342Z,1.75
2018-09-13T02:50:53.643Z,1.65
2018-09-13T02:51:27.822Z,1.80
2018-09-13T02:52:01.945Z,1.80
2018-09-13T02:52:36.142Z,1.90
2018-09-13T02:53:10.012Z,1.90
2018-09-13T02:53:44.138Z,2.17
2018-09-13T02:54:18.282Z,2.10
2018-09-13T02:54:52.134Z,2.23
2018-09-13T02:55:26.242Z,2.02
2018-09-13T02:56:00.326Z,1.98
2018-09-13T02:56:34.210Z,1.90
2018-09-13T02:57:08.341Z,2.47
2018-09-13T02:57:42.396Z,2.00
2018-09-13T02:58:16.466Z,1.82
2018-09-13T02:58:50.700Z,1.98
2018-09-13T02:59:24.784Z,2.00
2018-09-13T02:59:58.887Z,1.80
2018-09-13T03:00:32.730Z,1.70
2018-09-13T03:01:06.956Z,1.63
2018-09-13T03:01:41.174Z,2.20
2018-09-13T03:02:15.006Z,1.93
2018-09-13T03:02:48.888Z,1.83
2018-09-13T03:03:22.758Z,1.90
2018-09-13T03:03:56.944Z,2.27
2018-09-13T03:04:30.904Z,1.80
2018-09-13T03:05:05.076Z,2.15
2018-09-13T03:05:38.952Z,1.77
2018-09-13T03:06:12.796Z,1.83
2018-09-13T03:06:46.931Z,2.02
2018-09-13T03:07:21.034Z,1.55
2018-09-13T03:07:54.878Z,2.10
2018-09-13T03:08:28.979Z,2.15
2018-09-13T03:09:02.886Z,2.17
2018-09-13T03:09:36.720Z,2.20
2018-09-13T03:10:10.533Z,1.90
2018-09-13T03:10:44.663Z,2.02
2018-09-13T03:11:18.760Z,2.17
2018-09-13T03:11:52.626Z,1.83
2018-09-13T03:12:26.712Z,1.92
2018-09-13T03:13:00.566Z,1.80
2018-09-13T03:13:34.748Z,1.70
2018-09-13T03:14:08.620Z,1.50
2018-09-13T03:14:42.508Z,2.10
2018-09-13T03:15:16.362Z,2.03
2018-09-13T03:15:50.218Z,2.10
2018-09-13T03:17:27.638Z,2.02
2018-09-13T03:18:01.782Z,1.80
2018-09-13T03:18:35.903Z,2.12
2018-09-13T03:19:09.768Z,2.10
2018-09-13T03:19:43.876Z,1.95
2018-09-13T03:20:17.724Z,1.70
2018-09-13T03:20:51.860Z,1.60
2018-09-13T03:21:25.728Z,2.23
2018-09-13T03:21:59.590Z,2.00
2018-09-13T03:22:33.423Z,1.60
2018-09-13T03:23:07.610Z,2.03
2018-09-13T03:23:41.704Z,2.10
2018-09-13T03:24:15.546Z,2.23
2018-09-13T03:24:49.367Z,1.97
2018-09-13T03:25:23.268Z,2.10
2018-09-13T03:25:57.380Z,2.02
2018-09-13T03:26:31.492Z,2.20
2018-09-13T03:27:05.826Z,2.17
2018-09-13T03:27:40.076Z,2.50
2018-09-13T03:28:13.946Z,2.27
2018-09-13T03:28:47.778Z,1.90
2018-09-13T03:29:21.908Z,1.90
2018-09-13T03:29:55.780Z,2.00
2018-09-13T03:30:30.204Z,2.30
2018-09-13T03:31:04.373Z,2.10
2018-09-13T03:31:38.390Z,2.10
2018-09-13T03:32:12.481Z,2.05
2018-09-13T03:32:46.321Z,1.70
2018-09-13T03:33:20.412Z,2.30
2018-09-13T03:33:54.252Z,2.43
2018-09-13T03:34:28.416Z,1.90
2018-09-13T03:35:02.558Z,2.40
2018-09-13T03:35:36.721Z,2.17
2018-09-13T03:36:10.566Z,2.20
2018-09-13T03:36:44.652Z,2.10
2018-09-13T03:37:18.800Z,2.07
2018-09-13T03:37:52.691Z,2.17
2018-09-13T03:38:26.590Z,2.03
2018-09-13T03:39:00.410Z,1.73
2018-09-13T03:39:34.308Z,2.37
2018-09-13T03:40:08.445Z,2.20
2018-09-13T03:40:42.897Z,2.95
2018-09-13T03:41:17.095Z,2.20
2018-09-13T03:41:50.946Z,2.20
2018-09-13T03:42:25.248Z,2.17
2018-09-13T03:42:59.434Z,2.17
2018-09-13T03:43:33.527Z,2.12
2018-09-13T03:44:08.234Z,2.30
2018-09-13T03:44:42.327Z,1.95
2018-09-13T03:45:16.189Z,2.50
2018-09-13T03:45:51.039Z,2.30
2018-09-13T03:46:24.910Z,2.03
2018-09-13T03:46:59.060Z,2.00
2018-09-13T03:47:33.182Z,1.67
2018-09-13T03:48:07.050Z,2.60
2018-09-13T03:48:41.217Z,2.77
2018-09-13T03:49:15.285Z,2.00
2018-09-13T03:49:49.699Z,2.37
2018-09-13T03:50:23.979Z,2.20
2018-09-13T03:50:57.789Z,2.40
2018-09-13T03:51:31.642Z,2.13
2018-09-13T03:52:05.575Z,2.10
2018-09-13T03:52:39.459Z,2.30
2018-09-13T03:53:13.301Z,2.23
2018-09-13T03:53:47.428Z,2.70
2018-09-13T03:54:21.539Z,2.00
2018-09-13T03:54:55.398Z,2.13
2018-09-13T03:55:29.237Z,2.10
2018-09-13T03:56:03.604Z,1.70
2018-09-13T03:56:37.741Z,2.33
2018-09-13T03:57:11.882Z,2.37
2018-09-13T03:57:45.980Z,2.27
2018-09-13T03:58:19.860Z,1.90
2018-09-13T03:58:53.676Z,2.37
2018-09-13T03:59:27.613Z,2.33
2018-09-13T04:00:02.161Z,2.60
2018-09-13T04:00:36.015Z,1.90
2018-09-13T04:01:10.179Z,2.60
2018-09-13T04:01:44.026Z,2.03
2018-09-13T04:02:17.936Z,2.30
2018-09-13T04:02:51.758Z,2.70
2018-09-13T04:03:25.979Z,2.50
2018-09-13T04:03:59.926Z,2.20
2018-09-13T04:04:33.773Z,2.50
2018-09-13T04:05:08.216Z,2.50
2018-09-13T04:05:42.071Z,2.90
2018-09-13T04:06:16.003Z,2.17
2018-09-13T04:06:49.848Z,2.60
2018-09-13T04:07:23.723Z,2.10
2018-09-13T04:07:57.547Z,2.10
2018-09-13T04:08:32.053Z,3.07
2018-09-13T04:09:09.732Z,2.50
2018-09-13T04:09:43.706Z,3.00
2018-09-13T04:10:17.799Z,3.33
2018-09-13T04:10:51.638Z,2.40
2018-09-13T04:11:25.786Z,3.00
2018-09-13T04:11:59.625Z,2.13
2018-09-13T04:12:34.680Z,2.17
2018-09-13T04:13:08.842Z,2.50
2018-09-13T04:13:42.667Z,2.60
2018-09-13T04:14:16.513Z,2.00
2018-09-13T04:14:50.364Z,2.00
2018-09-13T04:15:24.468Z,2.87
2018-09-13T04:15:58.301Z,2.40
2018-09-13T04:16:32.730Z,2.02
2018-09-13T04:17:06.842Z,2.50
2018-09-13T04:17:41.236Z,2.27
2018-09-13T04:18:15.338Z,2.95
2018-09-13T04:18:50.047Z,1.77
2018-09-13T04:19:27.216Z,2.33
2018-09-13T04:20:01.063Z,2.20
2018-09-13T04:20:34.882Z,2.90
2018-09-13T04:21:08.989Z,2.12
2018-09-13T04:21:42.823Z,2.23
2018-09-13T04:22:17.304Z,2.33
2018-09-13T04:22:51.161Z,2.20
2018-09-13T04:23:25.001Z,3.00
2018-09-13T04:23:59.456Z,2.90
2018-09-13T04:24:33.698Z,2.85
2018-09-13T04:25:08.130Z,2.60
2018-09-13T04:25:42.565Z,3.12
2018-09-13T04:26:16.718Z,3.27
2018-09-13T04:26:50.562Z,2.47
2018-09-13T04:27:24.765Z,3.13
2018-09-13T04:27:58.642Z,2.97
2018-09-13T04:28:32.507Z,2.57
2018-09-13T04:29:06.580Z,2.10
2018-09-13T04:29:41.418Z,2.62
2018-09-13T04:30:15.259Z,2.70
2018-09-13T04:30:49.145Z,2.93
2018-09-13T04:31:23.515Z,2.60
2018-09-13T04:31:57.632Z,3.10
2018-09-13T04:32:31.853Z,2.77
2018-09-13T04:33:06.147Z,2.98
2018-09-13T04:33:39.987Z,2.93
2018-09-13T04:34:13.826Z,2.73
2018-09-13T04:34:47.693Z,2.60
2018-09-13T04:35:21.841Z,2.77
2018-09-13T04:35:55.800Z,2.40
2018-09-13T04:36:29.887Z,3.10
2018-09-13T04:37:03.761Z,2.73
2018-09-13T04:37:37.670Z,3.17
2018-09-13T04:38:11.811Z,2.40
2018-09-13T04:38:45.654Z,2.80
2018-09-13T04:39:19.812Z,2.80
2018-09-13T04:39:53.673Z,4.10
2018-09-13T04:40:27.855Z,3.08
2018-09-13T04:41:01.956Z,3.00
2018-09-13T04:41:35.796Z,3.50
2018-09-13T04:42:09.912Z,3.10
2018-09-13T04:42:43.783Z,3.07
2018-09-13T04:43:18.052Z,2.70
2018-09-13T04:43:51.891Z,2.53
2018-09-13T04:44:26.465Z,2.97
2018-09-13T04:45:00.327Z,2.50
2018-09-13T04:45:34.594Z,3.37
2018-09-13T04:46:08.805Z,2.70
2018-09-13T04:46:42.701Z,2.73
2018-09-13T04:47:16.834Z,3.05
2018-09-13T04:47:50.729Z,3.20
2018-09-13T04:48:24.611Z,3.40
2018-09-13T04:48:58.784Z,2.92
2018-09-13T04:49:32.868Z,3.37
2018-09-13T04:50:07.017Z,3.10
2018-09-13T04:50:40.884Z,3.03
2018-09-13T04:51:14.715Z,2.80
2018-09-13T04:51:49.059Z,3.25
2018-09-13T04:52:22.905Z,2.73
2018-09-13T04:52:56.765Z,3.57
2018-09-13T04:54:34.345Z,2.75
2018-09-13T04:55:08.270Z,2.53
2018-09-13T04:55:42.505Z,3.07
2018-09-13T04:56:16.799Z,2.90
2018-09-13T04:56:54.680Z,3.27
2018-09-13T04:57:30.178Z,3.60
2018-09-13T04:58:05.132Z,3.00
2018-09-13T04:58:39.707Z,2.98
2018-09-13T04:59:14.436Z,3.45
2018-09-13T04:59:48.375Z,3.30
2018-09-13T05:00:22.338Z,2.77
2018-09-13T05:00:56.979Z,3.05
2018-09-13T05:01:31.387Z,3.63
2018-09-13T05:02:05.247Z,3.40
2018-09-13T05:02:39.611Z,2.90
2018-09-13T05:03:13.585Z,3.23
2018-09-13T05:03:47.705Z,2.95
2018-09-13T05:04:21.579Z,3.20
2018-09-13T05:04:55.766Z,3.23
2018-09-13T05:05:29.630Z,2.80
2018-09-13T05:06:03.841Z,3.00
2018-09-13T05:06:37.770Z,3.40
2018-09-13T05:07:12.349Z,2.92
2018-09-13T05:07:46.500Z,3.02
2018-09-13T05:08:20.377Z,3.43
2018-09-13T05:08:54.560Z,3.03
2018-09-13T05:09:28.545Z,2.97
2018-09-13T05:10:02.373Z,3.03
2018-09-13T05:10:36.242Z,2.40
2018-09-13T05:11:10.091Z,3.00
2018-09-13T05:11:43.961Z,3.40
2018-09-13T05:12:18.453Z,3.17
2018-09-13T05:12:52.978Z,3.30
2018-09-13T05:13:27.327Z,3.43
2018-09-13T05:14:01.153Z,3.00
2018-09-13T05:14:35.302Z,3.20
2018-09-13T05:15:09.231Z,2.97
2018-09-13T05:15:43.059Z,3.67
2018-09-13T05:16:16.982Z,2.97
2018-09-13T05:16:50.847Z,3.80
2018-09-13T05:17:24.985Z,3.67
2018-09-13T05:17:58.859Z,3.63
2018-09-13T05:18:32.877Z,3.20
2018-09-13T05:19:06.762Z,2.83
2018-09-13T05:19:40.917Z,3.08
2018-09-13T05:20:14.757Z,4.03
2018-09-13T05:20:48.655Z,4.27
2018-09-13T05:26:26.817Z,3.77
2018-09-13T05:27:01.007Z,4.70
2018-09-13T05:27:34.899Z,3.63
2018-09-13T05:28:09.079Z,3.60
2018-09-13T05:28:43.205Z,3.83
2018-09-13T05:29:17.362Z,3.50
2018-09-13T05:29:51.235Z,3.20
2018-09-13T05:30:25.367Z,3.37
2018-09-13T05:30:59.453Z,3.25
2018-09-13T05:31:33.357Z,4.37
2018-09-13T05:32:07.444Z,3.70
2018-09-13T05:32:41.366Z,3.53
2018-09-13T05:33:15.481Z,4.03
2018-09-13T05:33:49.641Z,4.08
2018-09-13T05:34:23.999Z,2.95
2018-09-13T05:34:58.189Z,2.90
2018-09-13T05:35:32.040Z,3.63
2018-09-13T05:36:06.487Z,3.75
2018-09-13T05:36:40.615Z,3.67
2018-09-13T05:37:14.516Z,3.90
2018-09-13T05:37:48.377Z,3.60
2018-09-13T05:38:22.223Z,3.80
2018-09-13T05:38:56.391Z,3.12
2018-09-13T05:39:30.793Z,3.40
2018-09-13T05:40:04.647Z,3.80
2018-09-13T05:40:38.551Z,3.20
2018-09-13T05:41:12.889Z,3.90
2018-09-13T05:41:47.106Z,3.95
2018-09-13T05:42:21.210Z,4.10
2018-09-13T05:42:55.072Z,3.57
2018-09-13T05:43:28.915Z,3.33
2018-09-13T05:44:02.778Z,3.17
2018-09-13T05:44:36.689Z,4.10
2018-09-13T05:45:10.647Z,3.40
2018-09-13T05:45:44.789Z,4.30
2018-09-13T05:46:18.959Z,4.20
2018-09-13T05:46:52.761Z,3.70
2018-09-13T05:47:26.593Z,4.40
2018-09-13T05:48:00.716Z,3.65
2018-09-13T05:48:34.923Z,4.23
2018-09-13T05:49:09.187Z,3.83
2018-09-13T05:49:43.227Z,3.80
2018-09-13T05:50:17.054Z,4.07
2018-09-13T05:50:50.897Z,3.40
2018-09-13T05:51:25.070Z,4.13
2018-09-13T05:51:58.967Z,3.83
2018-09-13T05:52:32.803Z,3.50
2018-09-13T05:53:06.989Z,3.57
2018-09-13T05:53:41.235Z,3.80
2018-09-13T05:54:15.085Z,3.57
2018-09-13T05:54:48.979Z,4.20
2018-09-13T05:55:22.947Z,4.07
2018-09-13T05:55:56.773Z,3.93
2018-09-13T05:56:30.637Z,4.33
2018-09-13T05:57:04.799Z,4.17
2018-09-13T05:57:38.681Z,4.60
2018-09-13T05:58:12.546Z,4.60
2018-09-13T05:58:46.375Z,4.33
2018-09-13T05:59:20.547Z,3.80
2018-09-13T05:59:54.433Z,4.17
2018-09-13T06:00:28.291Z,3.90
2018-09-13T06:01:02.153Z,3.60
2018-09-13T06:01:36.011Z,3.87
2018-09-13T06:02:09.877Z,3.30
2018-09-13T06:02:43.713Z,3.40
2018-09-13T06:03:17.565Z,3.60
2018-09-13T06:03:51.749Z,3.53
2018-09-13T06:04:25.617Z,3.07
2018-09-13T06:04:59.688Z,3.90
2018-09-13T06:05:33.545Z,3.50
2018-09-13T06:06:07.423Z,2.97
2018-09-13T06:06:41.272Z,4.30
2018-09-13T06:07:15.161Z,3.30
2018-09-13T06:07:49.099Z,3.70
2018-09-13T06:08:23.079Z,3.27
2018-09-13T06:08:56.928Z,3.87
2018-09-13T06:09:30.789Z,4.03
2018-09-13T06:10:05.011Z,3.70
2018-09-13T06:10:38.917Z,4.13
2018-09-13T06:11:12.733Z,3.40
2018-09-13T06:11:46.653Z,3.77
2018-09-13T06:12:20.825Z,3.60
2018-09-13T06:12:54.677Z,3.93
2018-09-13T06:13:28.593Z,3.77
2018-09-13T06:14:03.229Z,3.10
2018-09-13T06:14:37.151Z,3.80
2018-09-13T06:15:11.055Z,4.47
2018-09-13T06:15:44.889Z,3.90
2018-09-13T06:16:18.712Z,3.90
2018-09-13T06:16:52.915Z,3.30
2018-09-13T06:17:26.805Z,3.73
2018-09-13T06:18:00.662Z,3.67
2018-09-13T06:18:34.507Z,3.73
2018-09-13T06:19:08.712Z,3.43
2018-09-13T06:19:42.619Z,3.70
2018-09-13T06:20:16.719Z,3.40
2018-09-13T06:20:50.639Z,3.67
2018-09-13T06:21:24.507Z,3.77
2018-09-13T06:21:58.473Z,4.20
2018-09-13T06:22:32.699Z,4.00
2018-09-13T06:23:06.600Z,3.67
2018-09-13T06:23:40.465Z,4.80
2018-09-13T06:24:14.697Z,3.53
2018-09-13T06:24:48.555Z,3.53
2018-09-13T06:25:22.781Z,3.37
2018-09-13T06:25:57.291Z,4.00
2018-09-13T06:26:31.139Z,3.87
2018-09-13T06:27:05.332Z,4.20
2018-09-13T06:27:39.199Z,3.60
2018-09-13T06:28:13.071Z,3.97
2018-09-13T06:28:47.313Z,4.13
2018-09-13T06:29:21.557Z,3.77
2018-09-13T06:29:55.589Z,3.40
2018-09-13T06:30:29.501Z,3.57
2018-09-13T06:31:03.661Z,2.97
2018-09-13T06:31:37.508Z,3.33
2018-09-13T06:32:11.414Z,3.83
2018-09-13T06:32:45.273Z,3.90
2018-09-13T06:33:19.077Z,4.00
2018-09-13T06:33:52.961Z,3.60
2018-09-13T06:34:26.917Z,3.77
2018-09-13T06:35:00.725Z,3.30
2018-09-13T06:35:34.643Z,3.77
2018-09-13T06:36:08.847Z,3.87
2018-09-13T06:36:42.707Z,4.10
2018-09-13T06:37:16.586Z,3.80
2018-09-13T06:37:50.430Z,3.50
2018-09-13T06:38:24.283Z,3.77
2018-09-13T06:38:58.316Z,3.87
2018-09-13T06:39:32.143Z,3.40
2018-09-13T06:40:06.022Z,3.90
2018-09-13T06:40:39.902Z,3.23
2018-09-13T06:41:14.104Z,3.53
2018-09-13T06:41:47.926Z,3.53
2018-09-13T06:42:21.912Z,4.00
2018-09-13T06:42:55.940Z,4.40
2018-09-13T06:43:29.784Z,3.97
2018-09-13T06:44:03.962Z,4.40
2018-09-13T06:44:38.172Z,3.90
2018-09-13T06:45:12.334Z,3.97
2018-09-13T06:45:46.540Z,3.90
2018-09-13T06:46:20.377Z,5.07
2018-09-13T06:46:54.216Z,3.67
2018-09-13T06:47:28.056Z,4.20
2018-09-13T06:48:01.908Z,3.90
2018-09-13T06:48:36.162Z,4.63
2018-09-13T06:49:10.165Z,3.70
2018-09-13T06:49:44.034Z,3.77
2018-09-13T06:50:18.212Z,3.43
2018-09-13T06:50:52.156Z,3.90
2018-09-13T06:51:26.069Z,3.83
2018-09-13T06:52:00.302Z,3.30
2018-09-13T06:52:34.514Z,3.90
2018-09-13T06:53:08.330Z,4.13
2018-09-13T06:53:42.228Z,3.97
2018-09-13T06:54:16.125Z,4.37
2018-09-13T06:54:50.128Z,3.60
2018-09-13T06:55:23.962Z,4.10
2018-09-13T06:55:57.816Z,4.17
2018-09-13T06:56:31.670Z,4.57
2018-09-13T06:57:05.850Z,4.07
2018-09-13T06:57:39.738Z,5.20
2018-09-13T06:58:13.600Z,4.40
2018-09-13T06:58:47.474Z,4.20
2018-09-13T06:59:21.307Z,3.23
2018-09-13T06:59:55.272Z,4.10
2018-09-13T07:00:29.663Z,4.17
2018-09-13T07:01:03.896Z,4.20
2018-09-13T07:01:37.962Z,4.30
2018-09-13T07:02:12.178Z,4.67
2018-09-13T07:02:46.004Z,3.67
2018-09-13T07:03:20.166Z,4.50
2018-09-13T07:03:54.035Z,3.67
2018-09-13T07:04:27.890Z,3.80
2018-09-13T07:05:01.752Z,4.07
2018-09-13T07:05:35.663Z,3.30
2018-09-13T07:06:09.542Z,4.10
2018-09-13T07:06:43.371Z,4.23
2018-09-13T07:07:18.058Z,4.20
2018-09-13T07:07:51.932Z,3.63
2018-09-13T07:08:25.786Z,4.10
2018-09-13T07:08:59.693Z,3.57
2018-09-13T07:09:34.048Z,3.60
2018-09-13T07:10:07.905Z,3.57
2018-09-13T07:10:41.828Z,3.43
2018-09-13T07:11:15.688Z,4.90
2018-09-13T07:11:49.547Z,12.00
2018-09-13T07:12:23.389Z,11.97
2018-09-13T07:12:57.293Z,9.40
2018-09-13T07:13:31.493Z,5.70
2018-09-13T07:14:05.364Z,4.10
2018-09-13T07:14:39.566Z,4.07
2018-09-13T07:15:13.382Z,4.10
2018-09-13T07:15:47.287Z,3.73
2018-09-13T07:16:21.154Z,3.70
2018-09-13T07:16:54.974Z,3.73
2018-09-13T07:17:28.848Z,3.70
2018-09-13T07:18:02.681Z,4.10
2018-09-13T07:18:36.557Z,3.40
2018-09-13T07:19:10.413Z,3.73
2018-09-13T07:19:44.312Z,4.47
2018-09-13T07:20:18.158Z,4.10
2018-09-13T07:20:52.020Z,4.27
2018-09-13T07:21:25.863Z,3.30
2018-09-13T07:22:00.305Z,3.77
2018-09-13T07:22:34.140Z,3.97
2018-09-13T07:23:08.312Z,4.20
2018-09-13T07:23:42.282Z,4.73
2018-09-13T07:24:16.298Z,3.43
2018-09-13T07:24:50.174Z,3.80
2018-09-13T07:25:24.050Z,3.40
2018-09-13T07:25:57.906Z,4.53
2018-09-13T07:26:31.909Z,4.53
2018-09-13T07:27:05.806Z,3.53
2018-09-13T07:27:40.183Z,3.70
2018-09-13T07:28:14.078Z,3.70
2018-09-13T07:28:47.953Z,3.67
2018-09-13T07:29:21.800Z,3.67
2018-09-13T07:29:55.672Z,3.80
2018-09-13T07:30:29.520Z,3.80
2018-09-13T07:31:03.420Z,4.30
2018-09-13T07:31:37.285Z,3.33
2018-09-13T07:32:11.143Z,3.80
2018-09-13T07:32:45.017Z,4.20
2018-09-13T07:33:18.932Z,3.63
2018-09-13T07:33:52.775Z,3.00
2018-09-13T07:34:26.667Z,3.60
2018-09-13T07:35:00.872Z,3.93
2018-09-13T07:35:34.716Z,3.73
2018-09-13T07:36:08.918Z,4.17
2018-09-13T07:36:42.907Z,3.53
2018-09-13T07:37:16.948Z,3.20
2018-09-13T07:37:50.848Z,3.90
2018-09-13T07:38:24.771Z,4.47
2018-09-13T07:38:59.430Z,3.70
2018-09-13T07:39:33.270Z,3.77
2018-09-13T07:40:07.502Z,3.67
2018-09-13T07:40:41.370Z,2.97